sensor_id;sensor_type;location;lat;lon;timestamp;temperature;humidity
50738;DHT22;36703;48.154;17.126;2023-02-28T00:00:26;7.00;36.80
50738;DHT22;36703;48.154;17.126;2023-02-28T00:04:28;6.90;36.90
50738;DHT22;36703;48.154;17.126;2023-02-28T00:08:30;6.80;37.00
50738;DHT22;36703;48.154;17.126;2023-02-28T00:12:31;6.70;37.30
50738;DHT22;36703;48.154;17.126;2023-02-28T00:16:33;6.70;37.50
50738;DHT22;36703;48.154;17.126;2023-02-28T00:20:35;6.70;37.50
50738;DHT22;36703;48.154;17.126;2023-02-28T00:24:37;6.70;37.50
50738;DHT22;36703;48.154;17.126;2023-02-28T00:28:39;6.70;37.70
50738;DHT22;36703;48.154;17.126;2023-02-28T00:32:40;6.70;37.70
50738;DHT22;36703;48.154;17.126;2023-02-28T00:36:42;6.70;37.80
50738;DHT22;36703;48.154;17.126;2023-02-28T00:40:46;6.70;37.70
50738;DHT22;36703;48.154;17.126;2023-02-28T00:44:47;6.70;37.90
50738;DHT22;36703;48.154;17.126;2023-02-28T00:48:49;6.70;37.90
50738;DHT22;36703;48.154;17.126;2023-02-28T00:52:50;6.60;37.90
50738;DHT22;36703;48.154;17.126;2023-02-28T00:56:52;6.60;38.10
50738;DHT22;36703;48.154;17.126;2023-02-28T01:00:53;6.60;38.10
50738;DHT22;36703;48.154;17.126;2023-02-28T01:04:55;6.40;38.10
50738;DHT22;36703;48.154;17.126;2023-02-28T01:08:58;6.60;38.40
50738;DHT22;36703;48.154;17.126;2023-02-28T01:13:00;6.60;38.40
50738;DHT22;36703;48.154;17.126;2023-02-28T01:17:01;6.60;38.60
50738;DHT22;36703;48.154;17.126;2023-02-28T01:21:07;6.50;38.50
50738;DHT22;36703;48.154;17.126;2023-02-28T01:25:10;6.50;38.50
50738;DHT22;36703;48.154;17.126;2023-02-28T01:29:12;6.50;38.50
50738;DHT22;36703;48.154;17.126;2023-02-28T01:33:13;6.40;38.60
50738;DHT22;36703;48.154;17.126;2023-02-28T01:37:15;6.40;38.80
50738;DHT22;36703;48.154;17.126;2023-02-28T01:41:22;6.40;38.90
50738;DHT22;36703;48.154;17.126;2023-02-28T01:45:27;6.40;38.90
50738;DHT22;36703;48.154;17.126;2023-02-28T01:49:30;6.30;39.00
50738;DHT22;36703;48.154;17.126;2023-02-28T01:53:32;6.40;39.30
50738;DHT22;36703;48.154;17.126;2023-02-28T01:57:43;6.70;39.50
50738;DHT22;36703;48.154;17.126;2023-02-28T02:01:50;6.30;39.30
50738;DHT22;36703;48.154;17.126;2023-02-28T02:05:54;6.30;39.40
50738;DHT22;36703;48.154;17.126;2023-02-28T02:10:06;6.30;39.60
50738;DHT22;36703;48.154;17.126;2023-02-28T02:36:46;6.10;40.40
50738;DHT22;36703;48.154;17.126;2023-02-28T02:45:31;6.00;40.70
50738;DHT22;36703;48.154;17.126;2023-02-28T02:49:39;6.00;40.80
50738;DHT22;36703;48.154;17.126;2023-02-28T02:53:52;6.00;41.20
50738;DHT22;36703;48.154;17.126;2023-02-28T02:58:00;5.40;40.90
50738;DHT22;36703;48.154;17.126;2023-02-28T03:02:08;6.00;41.20
50738;DHT22;36703;48.154;17.126;2023-02-28T03:06:12;5.90;41.10
50738;DHT22;36703;48.154;17.126;2023-02-28T03:10:38;5.90;41.20
50738;DHT22;36703;48.154;17.126;2023-02-28T03:15:32;5.90;41.50
50738;DHT22;36703;48.154;17.126;2023-02-28T03:21:01;5.90;41.50
50738;DHT22;36703;48.154;17.126;2023-02-28T03:24:35;5.90;44.70
50738;DHT22;36703;48.154;17.126;2023-02-28T03:33:24;5.90;44.00
50738;DHT22;36703;48.154;17.126;2023-02-28T03:37:30;5.90;43.70
50738;DHT22;36703;48.154;17.126;2023-02-28T03:41:43;5.90;43.50
50738;DHT22;36703;48.154;17.126;2023-02-28T03:45:50;6.00;43.60
50738;DHT22;36703;48.154;17.126;2023-02-28T03:50:18;6.00;43.70
50738;DHT22;36703;48.154;17.126;2023-02-28T03:54:34;5.90;43.90
50738;DHT22;36703;48.154;17.126;2023-02-28T03:58:58;5.80;44.30
50738;DHT22;36703;48.154;17.126;2023-02-28T04:03:04;5.80;44.50
50738;DHT22;36703;48.154;17.126;2023-02-28T04:07:08;6.60;44.70
50738;DHT22;36703;48.154;17.126;2023-02-28T04:15:24;5.90;44.60
50738;DHT22;36703;48.154;17.126;2023-02-28T04:19:26;5.60;44.90
50738;DHT22;36703;48.154;17.126;2023-02-28T04:23:27;5.70;44.80
50738;DHT22;36703;48.154;17.126;2023-02-28T04:27:29;5.70;44.70
50738;DHT22;36703;48.154;17.126;2023-02-28T04:31:30;5.80;44.80
50738;DHT22;36703;48.154;17.126;2023-02-28T04:35:32;6.00;44.50
50738;DHT22;36703;48.154;17.126;2023-02-28T04:39:34;5.60;44.60
50738;DHT22;36703;48.154;17.126;2023-02-28T04:43:37;5.80;44.20
50738;DHT22;36703;48.154;17.126;2023-02-28T04:47:38;5.70;44.70
50738;DHT22;36703;48.154;17.126;2023-02-28T04:51:40;5.70;44.70
50738;DHT22;36703;48.154;17.126;2023-02-28T04:55:42;5.60;44.30
50738;DHT22;36703;48.154;17.126;2023-02-28T04:59:44;5.60;44.60
50738;DHT22;36703;48.154;17.126;2023-02-28T05:03:46;5.60;45.20
50738;DHT22;36703;48.154;17.126;2023-02-28T05:07:47;5.90;44.80
50738;DHT22;36703;48.154;17.126;2023-02-28T05:11:48;6.70;45.60
50738;DHT22;36703;48.154;17.126;2023-02-28T05:15:50;5.50;45.20
50738;DHT22;36703;48.154;17.126;2023-02-28T05:19:51;6.10;47.40
50738;DHT22;36703;48.154;17.126;2023-02-28T05:23:54;5.70;47.00
50738;DHT22;36703;48.154;17.126;2023-02-28T05:27:56;5.60;46.50
50738;DHT22;36703;48.154;17.126;2023-02-28T05:31:57;5.60;46.80
50738;DHT22;36703;48.154;17.126;2023-02-28T05:35:59;5.60;46.70
50738;DHT22;36703;48.154;17.126;2023-02-28T05:40:01;5.80;46.80
50738;DHT22;36703;48.154;17.126;2023-02-28T05:44:03;5.70;46.40
50738;DHT22;36703;48.154;17.126;2023-02-28T05:48:05;5.80;46.60
50738;DHT22;36703;48.154;17.126;2023-02-28T05:52:07;5.70;46.30
50738;DHT22;36703;48.154;17.126;2023-02-28T05:56:08;5.70;46.40
50738;DHT22;36703;48.154;17.126;2023-02-28T06:00:11;5.60;46.50
50738;DHT22;36703;48.154;17.126;2023-02-28T06:04:17;5.70;46.30
50738;DHT22;36703;48.154;17.126;2023-02-28T06:08:20;5.70;46.70
50738;DHT22;36703;48.154;17.126;2023-02-28T06:12:21;5.70;46.80
50738;DHT22;36703;48.154;17.126;2023-02-28T06:16:23;5.50;46.70
50738;DHT22;36703;48.154;17.126;2023-02-28T06:20:26;5.90;46.30
50738;DHT22;36703;48.154;17.126;2023-02-28T06:24:31;6.00;46.20
50738;DHT22;36703;48.154;17.126;2023-02-28T06:28:33;5.80;46.00
50738;DHT22;36703;48.154;17.126;2023-02-28T06:32:34;5.80;46.20
50738;DHT22;36703;48.154;17.126;2023-02-28T06:36:38;7.00;46.60
50738;DHT22;36703;48.154;17.126;2023-02-28T06:40:40;5.90;45.60
50738;DHT22;36703;48.154;17.126;2023-02-28T06:44:42;5.90;45.80
50738;DHT22;36703;48.154;17.126;2023-02-28T06:48:45;6.10;45.70
50738;DHT22;36703;48.154;17.126;2023-02-28T06:52:47;6.00;45.60
50738;DHT22;36703;48.154;17.126;2023-02-28T06:56:48;5.80;45.90
50738;DHT22;36703;48.154;17.126;2023-02-28T07:00:52;5.90;46.00
50738;DHT22;36703;48.154;17.126;2023-02-28T07:04:53;5.90;45.50
50738;DHT22;36703;48.154;17.126;2023-02-28T07:08:55;5.90;45.80
50738;DHT22;36703;48.154;17.126;2023-02-28T07:12:56;6.50;45.80
50738;DHT22;36703;48.154;17.126;2023-02-28T07:16:58;7.00;45.70
50738;DHT22;36703;48.154;17.126;2023-02-28T07:21:05;6.60;45.70
50738;DHT22;36703;48.154;17.126;2023-02-28T07:25:09;6.30;45.00
50738;DHT22;36703;48.154;17.126;2023-02-28T07:29:10;6.30;45.20
50738;DHT22;36703;48.154;17.126;2023-02-28T07:33:12;6.20;45.20
50738;DHT22;36703;48.154;17.126;2023-02-28T07:37:14;7.00;45.40
50738;DHT22;36703;48.154;17.126;2023-02-28T07:41:17;6.20;44.90
50738;DHT22;36703;48.154;17.126;2023-02-28T07:45:20;6.40;45.00
50738;DHT22;36703;48.154;17.126;2023-02-28T07:49:22;6.50;45.10
50738;DHT22;36703;48.154;17.126;2023-02-28T07:53:24;6.50;44.90
50738;DHT22;36703;48.154;17.126;2023-02-28T07:57:25;6.60;44.80
50738;DHT22;36703;48.154;17.126;2023-02-28T08:01:27;6.70;44.90
50738;DHT22;36703;48.154;17.126;2023-02-28T08:05:29;6.70;44.70
50738;DHT22;36703;48.154;17.126;2023-02-28T08:09:32;6.80;44.60
50738;DHT22;36703;48.154;17.126;2023-02-28T08:13:34;7.00;44.30
50738;DHT22;36703;48.154;17.126;2023-02-28T08:17:35;7.10;44.20
50738;DHT22;36703;48.154;17.126;2023-02-28T08:21:36;7.20;44.10
50738;DHT22;36703;48.154;17.126;2023-02-28T08:25:38;7.30;43.90
50738;DHT22;36703;48.154;17.126;2023-02-28T08:29:40;7.30;44.00
50738;DHT22;36703;48.154;17.126;2023-02-28T08:33:42;7.40;44.00
50738;DHT22;36703;48.154;17.126;2023-02-28T08:37:43;7.50;43.90
50738;DHT22;36703;48.154;17.126;2023-02-28T08:41:45;7.50;43.60
50738;DHT22;36703;48.154;17.126;2023-02-28T08:45:47;7.80;43.10
50738;DHT22;36703;48.154;17.126;2023-02-28T08:49:49;7.80;42.70
50738;DHT22;36703;48.154;17.126;2023-02-28T08:53:50;8.00;42.40
50738;DHT22;36703;48.154;17.126;2023-02-28T08:57:51;8.00;41.80
50738;DHT22;36703;48.154;17.126;2023-02-28T09:01:53;8.10;41.60
50738;DHT22;36703;48.154;17.126;2023-02-28T09:05:56;8.20;41.30
50738;DHT22;36703;48.154;17.126;2023-02-28T09:09:58;8.20;41.20
50738;DHT22;36703;48.154;17.126;2023-02-28T09:14:00;8.20;41.30
50738;DHT22;36703;48.154;17.126;2023-02-28T09:18:04;8.60;44.80
50738;DHT22;36703;48.154;17.126;2023-02-28T09:22:05;8.70;43.70
50738;DHT22;36703;48.154;17.126;2023-02-28T09:26:07;8.80;43.20
50738;DHT22;36703;48.154;17.126;2023-02-28T09:30:09;9.00;40.50
50738;DHT22;36703;48.154;17.126;2023-02-28T09:34:11;9.30;40.50
50738;DHT22;36703;48.154;17.126;2023-02-28T09:38:13;9.70;39.80
50738;DHT22;36703;48.154;17.126;2023-02-28T09:42:30;10.10;39.40
50738;DHT22;36703;48.154;17.126;2023-02-28T09:46:43;10.60;39.00
50738;DHT22;36703;48.154;17.126;2023-02-28T09:50:48;11.10;38.60
50738;DHT22;36703;48.154;17.126;2023-02-28T09:54:52;11.70;38.00
50738;DHT22;36703;48.154;17.126;2023-02-28T09:58:58;12.40;37.40
50738;DHT22;36703;48.154;17.126;2023-02-28T10:07:54;13.10;36.70
50738;DHT22;36703;48.154;17.126;2023-02-28T10:12:03;14.50;35.00
50738;DHT22;36703;48.154;17.126;2023-02-28T10:16:11;14.70;34.80
50738;DHT22;36703;48.154;17.126;2023-02-28T10:20:20;14.50;34.50
50738;DHT22;36703;48.154;17.126;2023-02-28T10:24:45;15.00;34.30
50738;DHT22;36703;48.154;17.126;2023-02-28T10:28:53;16.10;33.30
50738;DHT22;36703;48.154;17.126;2023-02-28T10:32:55;16.40;32.40
50738;DHT22;36703;48.154;17.126;2023-02-28T10:36:58;16.50;32.10
50738;DHT22;36703;48.154;17.126;2023-02-28T10:45:17;16.70;30.80
50738;DHT22;36703;48.154;17.126;2023-02-28T10:49:24;16.80;30.70
50738;DHT22;36703;48.154;17.126;2023-02-28T10:53:30;16.70;30.60
50738;DHT22;36703;48.154;17.126;2023-02-28T10:57:33;16.60;30.50
50738;DHT22;36703;48.154;17.126;2023-02-28T11:01:44;16.50;30.60
50738;DHT22;36703;48.154;17.126;2023-02-28T11:05:47;16.60;30.00
50738;DHT22;36703;48.154;17.126;2023-02-28T11:09:54;16.90;29.70
50738;DHT22;36703;48.154;17.126;2023-02-28T11:14:04;17.00;29.40
50738;DHT22;36703;48.154;17.126;2023-02-28T11:22:19;17.30;29.30
50738;DHT22;36703;48.154;17.126;2023-02-28T11:26:42;17.70;29.10
50738;DHT22;36703;48.154;17.126;2023-02-28T11:30:45;17.90;28.60
50738;DHT22;36703;48.154;17.126;2023-02-28T11:35:19;18.10;28.50
50738;DHT22;36703;48.154;17.126;2023-02-28T11:39:26;18.30;28.10
50738;DHT22;36703;48.154;17.126;2023-02-28T11:48:19;18.20;27.80
50738;DHT22;36703;48.154;17.126;2023-02-28T11:52:40;18.00;27.90
50738;DHT22;36703;48.154;17.126;2023-02-28T11:56:50;17.80;28.00
50738;DHT22;36703;48.154;17.126;2023-02-28T12:05:24;17.80;27.90
50738;DHT22;36703;48.154;17.126;2023-02-28T12:09:57;18.10;27.70
50738;DHT22;36703;48.154;17.126;2023-02-28T12:19:38;18.00;27.40
50738;DHT22;36703;48.154;17.126;2023-02-28T12:28:12;18.10;27.40
50738;DHT22;36703;48.154;17.126;2023-02-28T12:32:27;18.20;27.30
50738;DHT22;36703;48.154;17.126;2023-02-28T12:36:52;18.10;27.10
50738;DHT22;36703;48.154;17.126;2023-02-28T12:41:01;18.10;27.60
50738;DHT22;36703;48.154;17.126;2023-02-28T12:45:12;18.00;27.00
50738;DHT22;36703;48.154;17.126;2023-02-28T12:49:48;17.90;26.90
50738;DHT22;36703;48.154;17.126;2023-02-28T12:54:09;18.00;26.90
50738;DHT22;36703;48.154;17.126;2023-02-28T12:58:23;18.20;26.90
50738;DHT22;36703;48.154;17.126;2023-02-28T13:03:17;18.50;26.70
50738;DHT22;36703;48.154;17.126;2023-02-28T13:12:01;19.10;26.30
50738;DHT22;36703;48.154;17.126;2023-02-28T13:16:13;19.40;26.00
50738;DHT22;36703;48.154;17.126;2023-02-28T13:20:20;19.50;25.80
50738;DHT22;36703;48.154;17.126;2023-02-28T13:24:47;19.50;25.50
50738;DHT22;36703;48.154;17.126;2023-02-28T13:33:29;19.70;25.30
50738;DHT22;36703;48.154;17.126;2023-02-28T13:37:41;19.90;25.20
50738;DHT22;36703;48.154;17.126;2023-02-28T13:41:45;20.00;24.90
50738;DHT22;36703;48.154;17.126;2023-02-28T13:46:08;20.20;24.80
50738;DHT22;36703;48.154;17.126;2023-02-28T13:50:29;20.10;24.70
50738;DHT22;36703;48.154;17.126;2023-02-28T14:17:52;17.90;25.60
50738;DHT22;36703;48.154;17.126;2023-02-28T14:31:41;17.10;25.90
50738;DHT22;36703;48.154;17.126;2023-02-28T14:40:24;16.30;26.30
50738;DHT22;36703;48.154;17.126;2023-02-28T14:44:29;16.00;26.50
50738;DHT22;36703;48.154;17.126;2023-02-28T14:48:31;15.70;26.60
50738;DHT22;36703;48.154;17.126;2023-02-28T14:52:33;15.50;26.90
50738;DHT22;36703;48.154;17.126;2023-02-28T14:56:37;15.30;27.00
50738;DHT22;36703;48.154;17.126;2023-02-28T15:00:50;15.10;27.10
50738;DHT22;36703;48.154;17.126;2023-02-28T15:04:56;14.90;27.30
50738;DHT22;36703;48.154;17.126;2023-02-28T15:09:29;14.60;27.50
50738;DHT22;36703;48.154;17.126;2023-02-28T15:17:42;14.40;27.70
50738;DHT22;36703;48.154;17.126;2023-02-28T15:21:49;14.20;27.90
50738;DHT22;36703;48.154;17.126;2023-02-28T15:26:03;14.10;28.00
50738;DHT22;36703;48.154;17.126;2023-02-28T15:30:08;13.90;28.00
50738;DHT22;36703;48.154;17.126;2023-02-28T15:34:41;13.80;28.20
50738;DHT22;36703;48.154;17.126;2023-02-28T15:38:44;13.60;28.40
50738;DHT22;36703;48.154;17.126;2023-02-28T15:47:19;13.20;28.80
50738;DHT22;36703;48.154;17.126;2023-02-28T15:51:26;12.90;29.10
50738;DHT22;36703;48.154;17.126;2023-02-28T15:55:32;12.80;29.20
50738;DHT22;36703;48.154;17.126;2023-02-28T15:59:36;12.60;29.40
50738;DHT22;36703;48.154;17.126;2023-02-28T16:03:42;12.60;29.50
50738;DHT22;36703;48.154;17.126;2023-02-28T16:07:45;12.40;29.60
50738;DHT22;36703;48.154;17.126;2023-02-28T16:11:51;12.30;29.70
50738;DHT22;36703;48.154;17.126;2023-02-28T16:15:54;12.30;29.90
50738;DHT22;36703;48.154;17.126;2023-02-28T16:19:56;12.30;30.00
50738;DHT22;36703;48.154;17.126;2023-02-28T16:23:57;12.20;30.00
50738;DHT22;36703;48.154;17.126;2023-02-28T16:27:59;12.10;30.00
50738;DHT22;36703;48.154;17.126;2023-02-28T16:32:04;12.10;30.10
50738;DHT22;36703;48.154;17.126;2023-02-28T16:36:08;11.90;30.10
50738;DHT22;36703;48.154;17.126;2023-02-28T16:40:19;11.90;30.30
50738;DHT22;36703;48.154;17.126;2023-02-28T16:44:32;11.90;30.40
50738;DHT22;36703;48.154;17.126;2023-02-28T16:48:35;11.90;30.40
50738;DHT22;36703;48.154;17.126;2023-02-28T16:52:37;12.00;30.50
50738;DHT22;36703;48.154;17.126;2023-02-28T16:56:42;11.90;30.50
50738;DHT22;36703;48.154;17.126;2023-02-28T17:00:46;11.80;30.50
50738;DHT22;36703;48.154;17.126;2023-02-28T17:04:47;11.80;30.60
50738;DHT22;36703;48.154;17.126;2023-02-28T17:08:50;11.80;30.70
50738;DHT22;36703;48.154;17.126;2023-02-28T17:12:51;11.80;30.70
50738;DHT22;36703;48.154;17.126;2023-02-28T17:16:53;11.80;30.80
50738;DHT22;36703;48.154;17.126;2023-02-28T17:20:55;11.80;30.80
50738;DHT22;36703;48.154;17.126;2023-02-28T17:24:56;11.80;30.90
50738;DHT22;36703;48.154;17.126;2023-02-28T17:28:59;11.80;31.00
50738;DHT22;36703;48.154;17.126;2023-02-28T17:33:01;11.80;31.10
50738;DHT22;36703;48.154;17.126;2023-02-28T17:37:03;11.80;31.30
50738;DHT22;36703;48.154;17.126;2023-02-28T17:41:05;11.80;31.40
50738;DHT22;36703;48.154;17.126;2023-02-28T17:45:06;11.80;31.50
50738;DHT22;36703;48.154;17.126;2023-02-28T17:49:08;11.70;31.60
50738;DHT22;36703;48.154;17.126;2023-02-28T17:53:10;11.70;31.70
50738;DHT22;36703;48.154;17.126;2023-02-28T17:57:14;11.70;31.80
50738;DHT22;36703;48.154;17.126;2023-02-28T18:01:17;11.70;31.80
50738;DHT22;36703;48.154;17.126;2023-02-28T18:05:21;11.70;31.90
50738;DHT22;36703;48.154;17.126;2023-02-28T18:09:22;11.70;31.90
50738;DHT22;36703;48.154;17.126;2023-02-28T18:13:24;11.70;32.00
50738;DHT22;36703;48.154;17.126;2023-02-28T18:17:25;11.70;32.10
50738;DHT22;36703;48.154;17.126;2023-02-28T18:21:27;11.70;32.20
50738;DHT22;36703;48.154;17.126;2023-02-28T18:25:29;11.70;32.30
50738;DHT22;36703;48.154;17.126;2023-02-28T18:29:30;11.70;32.30
50738;DHT22;36703;48.154;17.126;2023-02-28T18:33:34;11.70;32.40
50738;DHT22;36703;48.154;17.126;2023-02-28T18:37:35;11.70;32.50
50738;DHT22;36703;48.154;17.126;2023-02-28T18:41:38;11.60;32.50
50738;DHT22;36703;48.154;17.126;2023-02-28T18:45:40;11.70;32.70
50738;DHT22;36703;48.154;17.126;2023-02-28T18:49:42;11.60;32.80
50738;DHT22;36703;48.154;17.126;2023-02-28T18:53:44;11.60;32.90
50738;DHT22;36703;48.154;17.126;2023-02-28T18:57:46;11.60;33.00
50738;DHT22;36703;48.154;17.126;2023-02-28T19:01:48;11.40;33.00
50738;DHT22;36703;48.154;17.126;2023-02-28T19:05:56;11.40;33.10
50738;DHT22;36703;48.154;17.126;2023-02-28T19:09:58;11.30;33.80
50738;DHT22;36703;48.154;17.126;2023-02-28T19:14:00;11.30;33.40
50738;DHT22;36703;48.154;17.126;2023-02-28T19:18:02;11.20;33.40
50738;DHT22;36703;48.154;17.126;2023-02-28T19:22:04;11.30;33.50
50738;DHT22;36703;48.154;17.126;2023-02-28T19:26:07;11.20;33.60
50738;DHT22;36703;48.154;17.126;2023-02-28T19:30:13;11.20;33.70
50738;DHT22;36703;48.154;17.126;2023-02-28T19:34:14;11.10;33.90
50738;DHT22;36703;48.154;17.126;2023-02-28T19:38:16;11.10;34.10
50738;DHT22;36703;48.154;17.126;2023-02-28T19:42:18;11.10;34.20
50738;DHT22;36703;48.154;17.126;2023-02-28T19:46:20;11.10;34.20
50738;DHT22;36703;48.154;17.126;2023-02-28T19:50:21;11.10;34.80
50738;DHT22;36703;48.154;17.126;2023-02-28T19:54:24;11.10;34.20
50738;DHT22;36703;48.154;17.126;2023-02-28T19:58:26;11.00;34.40
50738;DHT22;36703;48.154;17.126;2023-02-28T20:02:28;11.10;34.40
50738;DHT22;36703;48.154;17.126;2023-02-28T20:06:33;11.00;34.40
50738;DHT22;36703;48.154;17.126;2023-02-28T20:10:35;11.00;34.40
50738;DHT22;36703;48.154;17.126;2023-02-28T20:14:37;10.80;34.30
50738;DHT22;36703;48.154;17.126;2023-02-28T20:18:39;10.80;34.40
50738;DHT22;36703;48.154;17.126;2023-02-28T20:22:41;10.80;34.60
50738;DHT22;36703;48.154;17.126;2023-02-28T20:26:43;10.70;34.60
50738;DHT22;36703;48.154;17.126;2023-02-28T20:30:45;10.60;34.60
50738;DHT22;36703;48.154;17.126;2023-02-28T20:34:48;10.60;34.80
50738;DHT22;36703;48.154;17.126;2023-02-28T20:38:51;10.60;34.80
50738;DHT22;36703;48.154;17.126;2023-02-28T20:42:54;10.50;35.50
50738;DHT22;36703;48.154;17.126;2023-02-28T20:46:55;10.40;34.90
50738;DHT22;36703;48.154;17.126;2023-02-28T20:50:58;10.40;35.10
50738;DHT22;36703;48.154;17.126;2023-02-28T20:55:00;10.40;35.20
50738;DHT22;36703;48.154;17.126;2023-02-28T20:59:01;10.40;35.20
50738;DHT22;36703;48.154;17.126;2023-02-28T21:03:03;10.40;35.40
50738;DHT22;36703;48.154;17.126;2023-02-28T21:07:04;10.40;35.50
50738;DHT22;36703;48.154;17.126;2023-02-28T21:11:11;10.40;35.60
50738;DHT22;36703;48.154;17.126;2023-02-28T21:15:14;10.50;35.70
50738;DHT22;36703;48.154;17.126;2023-02-28T21:19:17;10.40;35.60
50738;DHT22;36703;48.154;17.126;2023-02-28T21:23:19;10.40;35.70
50738;DHT22;36703;48.154;17.126;2023-02-28T21:27:21;10.30;35.70
50738;DHT22;36703;48.154;17.126;2023-02-28T21:31:24;10.30;35.80
50738;DHT22;36703;48.154;17.126;2023-02-28T21:35:28;10.20;35.90
50738;DHT22;36703;48.154;17.126;2023-02-28T21:39:30;10.20;36.00
50738;DHT22;36703;48.154;17.126;2023-02-28T21:43:31;10.00;36.00
50738;DHT22;36703;48.154;17.126;2023-02-28T21:47:33;10.00;36.10
50738;DHT22;36703;48.154;17.126;2023-02-28T21:51:34;9.90;36.20
50738;DHT22;36703;48.154;17.126;2023-02-28T21:55:36;9.90;36.30
50738;DHT22;36703;48.154;17.126;2023-02-28T21:59:37;9.90;36.40
50738;DHT22;36703;48.154;17.126;2023-02-28T22:03:39;10.00;36.30
50738;DHT22;36703;48.154;17.126;2023-02-28T22:07:43;9.80;36.30
50738;DHT22;36703;48.154;17.126;2023-02-28T22:11:45;9.80;36.50
50738;DHT22;36703;48.154;17.126;2023-02-28T22:15:47;9.80;36.70
50738;DHT22;36703;48.154;17.126;2023-02-28T22:19:49;9.80;36.70
50738;DHT22;36703;48.154;17.126;2023-02-28T22:23:50;9.70;36.80
50738;DHT22;36703;48.154;17.126;2023-02-28T22:27:52;9.80;36.80
50738;DHT22;36703;48.154;17.126;2023-02-28T22:31:53;9.70;36.80
50738;DHT22;36703;48.154;17.126;2023-02-28T22:35:55;9.70;36.80
50738;DHT22;36703;48.154;17.126;2023-02-28T22:39:56;9.70;37.00
50738;DHT22;36703;48.154;17.126;2023-02-28T22:44:00;9.70;36.90
50738;DHT22;36703;48.154;17.126;2023-02-28T22:48:04;9.60;37.00
50738;DHT22;36703;48.154;17.126;2023-02-28T22:52:06;9.60;37.20
50738;DHT22;36703;48.154;17.126;2023-02-28T22:56:09;9.40;37.30
50738;DHT22;36703;48.154;17.126;2023-02-28T23:00:13;9.50;37.40
50738;DHT22;36703;48.154;17.126;2023-02-28T23:04:33;9.50;37.40
50738;DHT22;36703;48.154;17.126;2023-02-28T23:08:35;9.50;37.40
50738;DHT22;36703;48.154;17.126;2023-02-28T23:12:38;9.60;37.50
50738;DHT22;36703;48.154;17.126;2023-02-28T23:16:53;9.50;37.50
50738;DHT22;36703;48.154;17.126;2023-02-28T23:20:56;9.50;37.60
50738;DHT22;36703;48.154;17.126;2023-02-28T23:24:57;9.50;37.70
50738;DHT22;36703;48.154;17.126;2023-02-28T23:28:59;9.50;37.70
50738;DHT22;36703;48.154;17.126;2023-02-28T23:33:01;9.40;37.80
50738;DHT22;36703;48.154;17.126;2023-02-28T23:37:02;9.40;37.90
50738;DHT22;36703;48.154;17.126;2023-02-28T23:41:10;9.30;38.00
50738;DHT22;36703;48.154;17.126;2023-02-28T23:45:12;9.30;38.00
50738;DHT22;36703;48.154;17.126;2023-02-28T23:49:14;9.30;37.90
50738;DHT22;36703;48.154;17.126;2023-02-28T23:53:16;9.20;38.00
50738;DHT22;36703;48.154;17.126;2023-02-28T23:57:17;9.30;38.00
